createdAt,value
2023-05-12T00:01:56.733Z,8.99
2023-05-12T00:06:59.389Z,8.88
2023-05-12T00:12:02.525Z,8.80
2023-05-12T00:17:06.633Z,8.75
2023-05-12T00:22:11.346Z,8.73
2023-05-12T00:27:14.637Z,8.67
2023-05-12T00:32:17.294Z,8.58
2023-05-12T00:37:20.331Z,8.49
2023-05-12T00:42:22.935Z,8.44
2023-05-12T00:47:25.885Z,8.37
2023-05-12T00:52:28.721Z,8.31
2023-05-12T00:57:33.849Z,8.28
2023-05-12T01:02:37.112Z,8.24
2023-05-12T01:07:40.404Z,8.19
2023-05-12T01:12:42.974Z,8.12
2023-05-12T01:17:54.300Z,8.05
2023-05-12T01:22:59.376Z,7.97
2023-05-12T01:28:03.528Z,7.91
2023-05-12T01:33:06.252Z,7.83
2023-05-12T01:38:08.906Z,7.77
2023-05-12T01:43:11.470Z,7.64
2023-05-12T01:48:14.465Z,7.48
2023-05-12T01:53:17.016Z,7.33
2023-05-12T01:58:20.478Z,7.16
2023-05-12T02:03:23.375Z,7.01
2023-05-12T02:08:26.438Z,6.88
2023-05-12T02:13:29.293Z,6.77
2023-05-12T02:18:31.963Z,6.64
2023-05-12T02:23:34.665Z,6.53
2023-05-12T02:28:37.641Z,6.42
2023-05-12T02:33:40.261Z,6.34
2023-05-12T02:38:44.114Z,6.27
2023-05-12T02:43:46.648Z,6.17
2023-05-12T02:48:49.210Z,6.07
2023-05-12T02:53:51.852Z,6.05
2023-05-12T02:58:54.453Z,6.08
2023-05-12T03:03:57.051Z,6.16
2023-05-12T03:08:59.852Z,6.45
2023-05-12T03:14:02.418Z,7.17
2023-05-12T03:19:05.353Z,8.10
2023-05-12T03:24:08.681Z,9.12
2023-05-12T03:29:11.279Z,10.17
2023-05-12T03:34:13.806Z,11.28
2023-05-12T03:39:16.375Z,12.37
2023-05-12T03:44:19.007Z,13.44
2023-05-12T03:49:21.765Z,14.49
2023-05-12T03:54:24.616Z,15.42
2023-05-12T03:59:31.048Z,15.94
2023-05-12T04:04:33.567Z,16.34
2023-05-12T04:09:36.241Z,16.91
2023-05-12T04:14:43.160Z,17.55
2023-05-12T04:19:46.778Z,18.25
2023-05-12T04:24:49.660Z,19.18
2023-05-12T04:29:52.249Z,20.27
2023-05-12T04:34:56.592Z,21.18
2023-05-12T04:39:59.138Z,21.93
2023-05-12T04:45:01.990Z,22.60
2023-05-12T04:50:05.784Z,23.29
2023-05-12T04:55:09.452Z,24.12
2023-05-12T05:00:13.135Z,24.99
2023-05-12T05:05:15.948Z,25.64
2023-05-12T05:10:18.553Z,26.22
2023-05-12T05:15:21.767Z,25.98
2023-05-12T05:20:28.773Z,25.94
2023-05-12T05:25:31.870Z,26.61
2023-05-12T05:30:34.468Z,26.74
2023-05-12T05:35:37.308Z,26.83
2023-05-12T05:40:52.314Z,27.02
2023-05-12T05:45:58.222Z,27.41
2023-05-12T05:51:00.785Z,27.48
2023-05-12T05:56:05.380Z,27.39
2023-05-12T06:01:08.110Z,27.33
2023-05-12T06:06:10.828Z,27.08
2023-05-12T06:11:13.757Z,27.23
2023-05-12T06:16:17.259Z,27.95
2023-05-12T06:21:19.985Z,27.83
2023-05-12T06:26:22.622Z,27.45
2023-05-12T06:31:25.251Z,27.11
2023-05-12T06:36:28.895Z,27.12
2023-05-12T06:41:33.615Z,27.53
2023-05-12T06:46:36.423Z,28.40
2023-05-12T06:51:39.185Z,29.02
2023-05-12T06:56:41.782Z,29.08
2023-05-12T07:01:44.454Z,29.66
2023-05-12T07:06:47.163Z,29.55
2023-05-12T07:11:49.902Z,28.98
2023-05-12T07:16:52.612Z,28.42
2023-05-12T07:21:55.418Z,28.06
2023-05-12T07:26:58.445Z,28.24
2023-05-12T07:32:01.056Z,27.93
2023-05-12T07:37:04.354Z,28.48
2023-05-12T07:42:07.252Z,29.06
2023-05-12T07:47:10.014Z,29.26
2023-05-12T07:52:12.787Z,29.88
2023-05-12T07:57:15.660Z,29.62
2023-05-12T08:02:18.457Z,28.85
2023-05-12T08:07:21.372Z,28.45
2023-05-12T08:12:24.374Z,28.50
2023-05-12T08:17:29.159Z,28.59
2023-05-12T08:22:32.466Z,28.28
2023-05-12T08:27:35.005Z,28.32
2023-05-12T08:32:37.996Z,28.20
2023-05-12T08:37:40.658Z,27.90
2023-05-12T08:42:55.858Z,27.55
2023-05-12T08:47:59.903Z,27.45
2023-05-12T08:53:05.725Z,27.57
2023-05-12T08:58:09.682Z,27.26
2023-05-12T09:03:15.295Z,26.51
2023-05-12T09:08:18.464Z,26.51
2023-05-12T09:13:36.546Z,26.82
2023-05-12T09:18:58.770Z,27.14
2023-05-12T09:24:08.942Z,27.15
2023-05-12T09:29:20.758Z,27.54
2023-05-12T09:34:37.451Z,27.72
2023-05-12T09:39:40.613Z,27.83
2023-05-12T09:44:43.593Z,27.86
2023-05-12T09:49:52.199Z,28.09
2023-05-12T09:54:54.880Z,28.46
2023-05-12T09:59:57.575Z,28.85
2023-05-12T10:05:06.729Z,29.07
2023-05-12T10:10:16.199Z,28.70
2023-05-12T10:15:20.572Z,28.24
2023-05-12T10:20:24.908Z,27.88
2023-05-12T10:25:29.159Z,26.85
2023-05-12T10:30:32.770Z,25.51
2023-05-12T10:35:38.197Z,24.47
2023-05-12T10:41:01.244Z,23.78
2023-05-12T10:46:13.408Z,23.23
2023-05-12T10:51:43.464Z,22.80
2023-05-12T10:56:46.862Z,22.50
2023-05-12T11:02:26.192Z,22.39
2023-05-12T11:07:35.418Z,22.06
2023-05-12T11:12:38.509Z,21.99
2023-05-12T11:17:41.499Z,21.85
2023-05-12T11:22:44.285Z,21.65
2023-05-12T11:27:50.687Z,21.50
2023-05-12T11:33:03.781Z,21.42
2023-05-12T11:38:17.187Z,21.32
2023-05-12T11:43:24.654Z,21.53
2023-05-12T11:48:36.094Z,21.82
2023-05-12T11:53:41.145Z,21.87
2023-05-12T11:58:58.810Z,21.92
2023-05-12T12:04:01.564Z,22.06
2023-05-12T12:09:04.316Z,22.17
2023-05-12T12:14:08.557Z,22.08
2023-05-12T12:19:11.272Z,22.04
2023-05-12T12:24:14.278Z,22.00
2023-05-12T12:29:17.872Z,22.08
2023-05-12T12:34:20.587Z,22.14
2023-05-12T12:39:23.391Z,22.22
2023-05-12T12:44:26.154Z,22.25
2023-05-12T12:49:28.936Z,22.25
2023-05-12T12:54:31.563Z,22.25
2023-05-12T12:59:34.098Z,22.32
2023-05-12T13:04:37.009Z,22.46
2023-05-12T13:09:39.623Z,22.52
2023-05-12T13:14:42.225Z,22.46
2023-05-12T13:19:44.788Z,22.34
2023-05-12T13:24:48.014Z,22.14
2023-05-12T13:29:50.593Z,22.12
2023-05-12T13:34:53.473Z,22.28
2023-05-12T13:39:56.369Z,22.46
2023-05-12T13:44:59.027Z,22.30
2023-05-12T13:50:01.883Z,22.00
2023-05-12T13:55:05.428Z,21.84
2023-05-12T14:00:09.126Z,21.73
2023-05-12T14:05:12.044Z,21.69
2023-05-12T14:10:15.197Z,21.67
2023-05-12T14:20:23.292Z,21.87
2023-05-12T14:25:26.187Z,21.91
2023-05-12T14:30:29.254Z,21.91
2023-05-12T14:35:32.612Z,21.90
2023-05-12T14:40:35.231Z,21.86
2023-05-12T14:45:38.289Z,21.70
2023-05-12T14:50:42.809Z,21.56
2023-05-12T14:55:45.716Z,21.55
2023-05-12T15:00:51.256Z,21.65
2023-05-12T15:06:05.510Z,21.75
2023-05-12T15:11:10.467Z,21.72
2023-05-12T15:16:13.584Z,21.61
2023-05-12T15:21:17.471Z,21.45
2023-05-12T15:26:32.790Z,21.36
2023-05-12T15:31:37.515Z,21.41
2023-05-12T15:36:40.264Z,21.49
2023-05-12T15:41:43.238Z,21.57
2023-05-12T15:46:46.380Z,21.67
2023-05-12T15:51:49.046Z,21.76
2023-05-12T15:56:51.601Z,21.70
2023-05-12T16:01:55.434Z,21.63
2023-05-12T16:06:58.105Z,21.64
2023-05-12T16:12:01.243Z,21.64
2023-05-12T16:17:04.198Z,21.66
2023-05-12T16:22:06.812Z,21.73
2023-05-12T16:27:09.426Z,21.75
2023-05-12T16:32:12.109Z,21.71
2023-05-12T16:37:14.810Z,21.65
2023-05-12T16:42:17.488Z,21.50
2023-05-12T16:47:20.760Z,21.27
2023-05-12T16:52:23.472Z,21.03
2023-05-12T16:57:26.848Z,20.70
2023-05-12T17:02:29.511Z,20.42
2023-05-12T17:07:35.161Z,20.24
2023-05-12T17:12:37.876Z,20.06
2023-05-12T17:17:40.636Z,19.91
2023-05-12T17:22:47.156Z,19.76
2023-05-12T17:27:50.332Z,19.59
2023-05-12T17:32:53.578Z,19.40
2023-05-12T17:37:56.366Z,19.18
2023-05-12T17:42:59.080Z,18.92
2023-05-12T17:48:02.624Z,18.71
2023-05-12T17:53:06.662Z,18.53
2023-05-12T17:58:09.260Z,18.39
2023-05-12T18:03:12.115Z,18.25
2023-05-12T18:08:14.850Z,18.11
2023-05-12T18:13:17.476Z,17.98
2023-05-12T18:18:20.116Z,17.84
2023-05-12T18:23:22.722Z,17.69
2023-05-12T18:28:25.329Z,17.54
2023-05-12T18:33:28.019Z,17.40
2023-05-12T18:38:30.606Z,17.24
2023-05-12T18:43:34.830Z,17.01
2023-05-12T18:48:37.494Z,16.79
2023-05-12T18:53:40.288Z,16.59
2023-05-12T18:58:42.910Z,16.40
2023-05-12T19:03:45.559Z,16.24
2023-05-12T19:08:48.508Z,16.09
2023-05-12T19:13:52.299Z,16.00
2023-05-12T19:18:55.450Z,15.88
2023-05-12T19:23:58.184Z,15.72
2023-05-12T19:29:02.066Z,15.57
2023-05-12T19:34:04.845Z,15.41
2023-05-12T19:39:07.386Z,15.22
2023-05-12T19:44:10.043Z,15.03
2023-05-12T19:49:13.899Z,14.85
2023-05-12T19:54:16.560Z,14.65
2023-05-12T19:59:19.202Z,14.46
2023-05-12T20:04:23.336Z,14.28
2023-05-12T20:09:26.107Z,14.12
2023-05-12T20:14:28.815Z,13.97
2023-05-12T20:19:33.477Z,13.85
2023-05-12T20:24:36.379Z,13.76
2023-05-12T20:29:39.476Z,13.68
2023-05-12T20:34:42.238Z,13.58
2023-05-12T20:39:44.994Z,13.46
2023-05-12T20:44:47.627Z,13.33
2023-05-12T20:49:57.002Z,13.18
2023-05-12T20:54:59.947Z,12.98
2023-05-12T21:00:02.868Z,12.78
2023-05-12T21:05:06.223Z,12.64
2023-05-12T21:10:09.334Z,12.56
2023-05-12T21:15:13.048Z,12.45
2023-05-12T21:20:15.589Z,12.34
2023-05-12T21:25:18.219Z,12.27
2023-05-12T21:30:21.605Z,12.19
2023-05-12T21:35:24.539Z,12.05
2023-05-12T21:40:27.157Z,11.93
2023-05-12T21:45:29.833Z,11.80
2023-05-12T21:50:32.389Z,11.64
2023-05-12T21:55:34.971Z,11.44
2023-05-12T22:00:38.839Z,11.26
2023-05-12T22:05:41.433Z,11.09
2023-05-12T22:10:44.299Z,10.91
2023-05-12T22:15:46.894Z,10.78
2023-05-12T22:20:49.553Z,10.66
2023-05-12T22:25:52.300Z,10.57
2023-05-12T22:30:54.884Z,10.46
2023-05-12T22:36:01.354Z,10.30
2023-05-12T22:41:04.056Z,10.14
2023-05-12T22:46:09.458Z,10.01
2023-05-12T22:51:12.202Z,9.88
2023-05-12T22:56:15.822Z,9.78
2023-05-12T23:01:18.834Z,9.74
2023-05-12T23:06:21.473Z,9.64
2023-05-12T23:11:24.128Z,9.54
2023-05-12T23:16:26.978Z,9.41
2023-05-12T23:21:29.670Z,9.31
2023-05-12T23:26:32.649Z,9.46
2023-05-12T23:31:35.271Z,12.84
2023-05-12T23:36:38.058Z,13.80
2023-05-12T23:41:40.796Z,12.09
2023-05-12T23:46:43.673Z,11.06
2023-05-12T23:51:46.583Z,10.44
2023-05-12T23:56:49.231Z,10.01
